createdAt,value
2016-07-18T00:00:16.834Z,71.52
2016-07-18T00:01:16.813Z,71.71
2016-07-18T00:02:16.796Z,72.19
2016-07-18T00:03:16.775Z,71.61
2016-07-18T00:04:16.757Z,72.29
2016-07-18T00:05:16.745Z,72.09
2016-07-18T00:06:16.720Z,72.96
2016-07-18T00:07:16.701Z,72.64
2016-07-18T00:08:16.681Z,72.67
2016-07-18T00:09:16.663Z,72.77
2016-07-18T00:10:16.646Z,73.41
2016-07-18T00:11:16.625Z,73.11
2016-07-18T00:12:16.604Z,73.11
2016-07-18T00:13:16.586Z,73.41
2016-07-18T00:14:16.566Z,73.31
2016-07-18T00:15:16.546Z,73.11
2016-07-18T00:16:16.531Z,73.11
2016-07-18T00:17:16.509Z,73.79
2016-07-18T00:18:16.492Z,73.11
2016-07-18T00:19:16.470Z,73.11
2016-07-18T00:20:16.458Z,73.79
2016-07-18T00:21:16.434Z,73.02
2016-07-18T00:22:16.412Z,73.6
2016-07-18T00:23:16.396Z,73.11
2016-07-18T00:24:16.376Z,73.11
2016-07-18T00:25:16.357Z,73.11
2016-07-18T00:26:16.340Z,73.11
2016-07-18T00:27:16.323Z,73.69
2016-07-18T00:28:16.298Z,73.79
2016-07-18T00:29:16.278Z,73.6
2016-07-18T00:30:16.258Z,73.5
2016-07-18T00:31:16.241Z,73.5
2016-07-18T00:32:16.220Z,73.79
2016-07-18T00:33:16.202Z,73.88
2016-07-18T00:34:16.191Z,73.98
2016-07-18T00:35:16.163Z,73.98
2016-07-18T00:36:16.158Z,74.17
2016-07-18T00:37:16.125Z,74.27
2016-07-18T00:38:16.105Z,74.13
2016-07-18T00:39:16.085Z,73.94
2016-07-18T00:40:16.066Z,74.13
2016-07-18T00:41:16.046Z,74.08
2016-07-18T00:42:16.028Z,74.81
2016-07-18T00:43:16.007Z,74.62
2016-07-18T00:44:15.989Z,74.52
2016-07-18T00:45:15.969Z,74.71
2016-07-18T00:46:15.952Z,75.1
2016-07-18T00:47:15.930Z,74.81
2016-07-18T00:48:15.914Z,75.1
2016-07-18T00:49:15.892Z,75.29
2016-07-18T00:50:15.872Z,75.48
2016-07-18T00:51:15.851Z,75.38
2016-07-18T00:52:15.834Z,75.77
2016-07-18T00:53:15.815Z,75.29
2016-07-18T00:54:15.794Z,75.38
2016-07-18T00:55:15.776Z,75.29
2016-07-18T00:56:15.754Z,75.48
2016-07-18T00:57:15.737Z,75.48
2016-07-18T00:58:15.715Z,76.06
2016-07-18T00:59:15.697Z,75.87
2016-07-18T01:00:15.676Z,75.87
2016-07-18T01:01:15.663Z,76.54
2016-07-18T01:02:15.639Z,76.15
2016-07-18T01:03:15.617Z,76.64
2016-07-18T01:04:15.600Z,76.44
2016-07-18T01:05:15.579Z,76.34
2016-07-18T01:06:15.561Z,76.34
2016-07-18T01:07:15.540Z,76.44
2016-07-18T01:08:15.533Z,76.64
2016-07-18T01:09:15.501Z,76.44
2016-07-18T01:10:15.481Z,76.44
2016-07-18T01:11:15.467Z,76.82
2016-07-18T01:12:15.441Z,76.64
2016-07-18T01:13:15.422Z,76.92
2016-07-18T01:14:15.400Z,77.31
2016-07-18T01:15:15.383Z,77.17
2016-07-18T01:16:15.362Z,77.11
2016-07-18T01:17:15.343Z,76.79
2016-07-18T01:18:15.323Z,76.92
2016-07-18T01:19:15.302Z,77.5
2016-07-18T01:20:15.282Z,77.36
2016-07-18T01:21:15.262Z,77.36
2016-07-18T01:22:15.245Z,77.56
2016-07-18T01:23:15.223Z,77.56
2016-07-18T01:24:15.203Z,77.56
2016-07-18T01:25:15.197Z,77.65
2016-07-18T01:26:15.168Z,77.75
2016-07-18T01:27:15.143Z,77.65
2016-07-18T01:28:15.126Z,78.13
2016-07-18T01:29:15.104Z,78.13
2016-07-18T01:30:15.087Z,78.03
2016-07-18T01:31:15.067Z,78.03
2016-07-18T01:32:15.046Z,78.13
2016-07-18T01:33:15.027Z,78.32
2016-07-18T01:34:15.005Z,78.7
2016-07-18T01:35:14.987Z,78.9
2016-07-18T01:36:14.966Z,78.52
2016-07-18T01:37:14.946Z,78.9
2016-07-18T01:38:14.925Z,78.61
2016-07-18T01:39:14.907Z,79.09
2016-07-18T01:40:14.887Z,79.19
2016-07-18T01:41:14.867Z,79.19
2016-07-18T01:42:14.848Z,79.14
2016-07-18T01:43:14.826Z,79.67
2016-07-18T01:44:14.808Z,79.53
2016-07-18T01:45:14.786Z,79.53
2016-07-18T01:46:14.767Z,79.44
2016-07-18T01:47:14.748Z,79.34
2016-07-18T01:48:14.729Z,79.44
2016-07-18T01:49:14.707Z,79.72
2016-07-18T01:50:14.685Z,79.82
2016-07-18T01:51:14.667Z,79.91
2016-07-18T01:52:14.646Z,80.11
2016-07-18T01:53:14.624Z,79.91
2016-07-18T01:54:14.615Z,79.82
2016-07-18T01:55:14.591Z,80.01
2016-07-18T01:56:14.566Z,80.11
2016-07-18T01:57:14.545Z,80.11
2016-07-18T01:58:14.526Z,79.91
2016-07-18T01:59:14.508Z,80.58
2016-07-18T02:00:14.585Z,80.68
2016-07-18T02:01:14.466Z,80.49
2016-07-18T02:02:14.446Z,80.49
2016-07-18T02:03:14.424Z,80.68
2016-07-18T02:04:14.407Z,81.16
2016-07-18T02:05:14.385Z,80.78
2016-07-18T02:06:14.364Z,80.74
2016-07-18T02:07:14.353Z,80.87
2016-07-18T02:08:14.322Z,80.97
2016-07-18T02:09:14.302Z,81.93
2016-07-18T02:10:14.281Z,81.51
2016-07-18T02:11:14.262Z,81.51
2016-07-18T02:12:14.242Z,81.45
2016-07-18T02:13:14.220Z,81.79
2016-07-18T02:14:14.200Z,81.89
2016-07-18T02:15:14.179Z,81.89
2016-07-18T02:16:14.163Z,81.7
2016-07-18T02:17:14.138Z,81.6
2016-07-18T02:18:14.120Z,81.84
2016-07-18T02:19:14.097Z,81.89
2016-07-18T02:20:14.079Z,82.27
2016-07-18T02:21:14.056Z,82.08
2016-07-18T02:22:14.037Z,82.37
2016-07-18T02:23:14.018Z,82.46
2016-07-18T02:24:13.996Z,82.56
2016-07-18T02:25:13.976Z,82.46
2016-07-18T02:26:13.954Z,82.37
2016-07-18T02:27:13.933Z,82.85
2016-07-18T02:28:13.914Z,82.75
2016-07-18T02:29:13.892Z,82.75
2016-07-18T02:30:13.873Z,82.65
2016-07-18T02:31:13.851Z,82.46
2016-07-18T02:32:13.832Z,82.56
2016-07-18T02:33:13.810Z,83.33
2016-07-18T02:34:13.796Z,83.14
2016-07-18T02:35:13.771Z,83.14
2016-07-18T02:36:13.749Z,82.75
2016-07-18T02:37:13.729Z,83.04
2016-07-18T02:38:13.710Z,82.94
2016-07-18T02:39:13.693Z,83.42
2016-07-18T02:40:13.668Z,83.23
2016-07-18T02:41:13.699Z,83.33
2016-07-18T02:42:13.680Z,83.52
2016-07-18T02:43:13.715Z,83.23
2016-07-18T02:44:13.586Z,83.42
2016-07-18T02:45:13.566Z,83.23
2016-07-18T02:46:13.543Z,83.23
2016-07-18T02:47:13.524Z,83.33
2016-07-18T02:48:13.500Z,83.23
2016-07-18T02:49:13.483Z,83.23
2016-07-18T02:50:13.460Z,83.23
2016-07-18T02:51:13.447Z,83.23
2016-07-18T02:52:13.423Z,83.14
2016-07-18T02:53:13.400Z,83.14
2016-07-18T02:54:13.379Z,83.14
2016-07-18T02:55:13.362Z,83.23
2016-07-18T02:56:13.340Z,83.23
2016-07-18T02:57:13.317Z,83.04
2016-07-18T02:58:13.298Z,83.14
2016-07-18T02:59:13.277Z,83.42
2016-07-18T03:00:13.255Z,83.23
2016-07-18T03:01:13.235Z,83.33
2016-07-18T03:02:13.213Z,83.29
2016-07-18T03:03:13.203Z,84.09
2016-07-18T03:04:13.174Z,83.76
2016-07-18T03:05:13.151Z,83.58
2016-07-18T03:06:13.136Z,83.52
2016-07-18T03:07:13.109Z,83.67
2016-07-18T03:08:13.091Z,83.58
2016-07-18T03:09:13.068Z,83.58
2016-07-18T03:10:13.049Z,83.58
2016-07-18T03:11:13.028Z,83.67
2016-07-18T03:12:13.006Z,83.67
2016-07-18T03:13:12.987Z,83.76
2016-07-18T03:14:12.967Z,83.48
2016-07-18T03:15:12.946Z,83.58
2016-07-18T03:16:12.925Z,83.58
2016-07-18T03:17:12.902Z,83.76
2016-07-18T03:18:12.882Z,83.58
2016-07-18T03:19:12.861Z,83.76
2016-07-18T03:20:12.842Z,84.05
2016-07-18T03:21:12.819Z,83.76
2016-07-18T03:22:12.799Z,83.86
2016-07-18T03:23:12.779Z,83.86
2016-07-18T03:24:12.756Z,83.76
2016-07-18T03:25:12.737Z,83.76
2016-07-18T03:26:12.715Z,83.76
2016-07-18T03:27:12.693Z,83.76
2016-07-18T03:28:12.674Z,83.95
2016-07-18T03:29:12.655Z,83.86
2016-07-18T03:30:12.633Z,83.76
2016-07-18T03:31:12.612Z,84.05
2016-07-18T03:32:12.591Z,83.95
2016-07-18T03:33:12.570Z,83.76
2016-07-18T03:34:12.550Z,83.58
2016-07-18T03:35:12.530Z,83.58
2016-07-18T03:36:12.509Z,83.48
2016-07-18T03:37:12.487Z,83.95
2016-07-18T03:38:12.466Z,83.95
2016-07-18T03:39:12.445Z,83.58
2016-07-18T03:40:12.425Z,83.95
2016-07-18T03:41:12.403Z,84.15
2016-07-18T03:42:12.384Z,83.95
2016-07-18T03:43:12.362Z,84.05
2016-07-18T03:44:12.342Z,83.76
2016-07-18T03:45:12.322Z,83.95
2016-07-18T03:46:12.298Z,84.15
2016-07-18T03:47:12.280Z,83.86
2016-07-18T03:48:12.259Z,84.15
2016-07-18T03:49:12.238Z,83.95
2016-07-18T03:50:12.218Z,84.34
2016-07-18T03:51:12.198Z,84.15
2016-07-18T03:52:12.176Z,84.25
2016-07-18T03:53:12.153Z,84.05
2016-07-18T03:54:12.135Z,84.34
2016-07-18T03:55:12.113Z,84.15
2016-07-18T03:56:12.093Z,84.15
2016-07-18T03:57:12.072Z,84.15
2016-07-18T03:58:12.050Z,84
2016-07-18T03:59:12.031Z,84.19
2016-07-18T04:00:12.011Z,84.19
2016-07-18T04:01:11.989Z,84
2016-07-18T04:02:11.969Z,83.91
2016-07-18T04:03:11.947Z,84.19
2016-07-18T04:04:11.928Z,84.25
2016-07-18T04:05:11.907Z,84.38
2016-07-18T04:06:11.888Z,84
2016-07-18T04:07:11.867Z,83.81
2016-07-18T04:08:11.844Z,83.81
2016-07-18T04:09:11.826Z,84.19
2016-07-18T04:10:11.806Z,84.19
2016-07-18T04:11:11.783Z,84
2016-07-18T04:12:11.769Z,84
2016-07-18T04:13:11.742Z,84.28
2016-07-18T04:14:11.724Z,84.19
2016-07-18T04:15:11.700Z,84.19
2016-07-18T04:16:11.682Z,84.19
2016-07-18T04:17:11.660Z,83.61
2016-07-18T04:18:11.640Z,83.81
2016-07-18T04:19:11.619Z,83.81
2016-07-18T04:20:11.599Z,84
2016-07-18T04:21:11.581Z,83.71
2016-07-18T04:22:11.560Z,83.91
2016-07-18T04:23:11.540Z,83.91
2016-07-18T04:24:11.520Z,83.81
2016-07-18T04:25:11.498Z,84
2016-07-18T04:26:11.479Z,84.09
2016-07-18T04:27:11.458Z,83.91
2016-07-18T04:28:11.438Z,84.09
2016-07-18T04:29:11.419Z,84
2016-07-18T04:30:11.399Z,83.75
2016-07-18T04:31:11.378Z,83.85
2016-07-18T04:32:11.356Z,84.04
2016-07-18T04:33:11.337Z,83.94
2016-07-18T04:34:11.316Z,83.37
2016-07-18T04:35:11.331Z,83.37
2016-07-18T04:36:11.277Z,83.08
2016-07-18T04:37:11.264Z,83.27
2016-07-18T04:38:11.249Z,83.37
2016-07-18T04:39:11.216Z,82.79
2016-07-18T04:40:11.198Z,83.08
2016-07-18T04:41:11.177Z,83.47
2016-07-18T04:42:11.157Z,83.37
2016-07-18T04:43:11.138Z,82.79
2016-07-18T04:44:11.115Z,82.89
2016-07-18T04:45:11.097Z,82.79
2016-07-18T04:46:11.077Z,82.7
2016-07-18T04:47:11.056Z,82.31
2016-07-18T04:48:11.036Z,82.6
2016-07-18T04:49:11.016Z,82.26
2016-07-18T04:50:10.997Z,82.74
2016-07-18T04:51:10.977Z,82.54
2016-07-18T04:52:10.960Z,81.97
2016-07-18T04:53:10.938Z,82.16
2016-07-18T04:54:10.922Z,81.78
2016-07-18T04:55:10.899Z,81.87
2016-07-18T04:56:10.883Z,81.87
2016-07-18T04:57:10.860Z,81.97
2016-07-18T04:58:10.844Z,82.07
2016-07-18T04:59:10.827Z,81.49
2016-07-18T05:00:10.804Z,81.49
2016-07-18T05:01:10.783Z,81.3
2016-07-18T05:02:10.773Z,81.49
2016-07-18T05:03:10.744Z,81.2
2016-07-18T05:04:10.724Z,81.97
2016-07-18T05:05:10.706Z,81.3
2016-07-18T05:06:10.685Z,80.96
2016-07-18T05:07:10.666Z,80.76
2016-07-18T05:08:10.647Z,80.91
2016-07-18T05:09:10.628Z,81.01
2016-07-18T05:10:10.633Z,80.73
2016-07-18T05:11:10.589Z,80.96
2016-07-18T05:12:10.570Z,80.57
2016-07-18T05:13:11.293Z,81.05
2016-07-18T05:14:10.621Z,80.96
2016-07-18T05:15:10.521Z,80.57
2016-07-18T05:16:10.551Z,80.09
2016-07-18T05:17:10.474Z,80.19
2016-07-18T05:18:10.456Z,79.99
2016-07-18T05:19:10.436Z,80.19
2016-07-18T05:20:10.420Z,80.32
2016-07-18T05:21:10.398Z,79.75
2016-07-18T05:22:10.546Z,79.65
2016-07-18T05:23:10.365Z,79.65
2016-07-18T05:24:10.353Z,79.27
2016-07-18T05:25:10.325Z,79.17
2016-07-18T05:26:10.307Z,78.98
2016-07-18T05:27:10.289Z,78.69
2016-07-18T05:28:10.273Z,78.88
2016-07-18T05:29:10.249Z,78.21
2016-07-18T05:30:10.233Z,78.25
2016-07-18T05:31:10.395Z,77.96
2016-07-18T05:32:10.194Z,77.76
2016-07-18T05:33:10.179Z,77.38
2016-07-18T05:34:10.169Z,77.19
2016-07-18T05:35:10.143Z,76.81
2016-07-18T05:36:10.122Z,76.32
2016-07-18T05:37:10.107Z,76.36
2016-07-18T05:38:10.089Z,76.26
2016-07-18T05:39:10.071Z,75.69
2016-07-18T05:40:10.054Z,75.49
2016-07-18T05:41:10.035Z,75.4
2016-07-18T05:42:10.023Z,75.05
2016-07-18T05:43:10.072Z,74.86
2016-07-18T05:44:09.986Z,74.67
2016-07-18T05:45:09.967Z,74.19
2016-07-18T05:46:09.950Z,73.9
2016-07-18T05:47:09.944Z,73.22
2016-07-18T05:48:09.916Z,73.22
2016-07-18T05:49:09.902Z,73.71
2016-07-18T05:50:09.884Z,72.88
2016-07-18T05:51:09.868Z,72.59
2016-07-18T05:52:09.862Z,72.88
2016-07-18T05:53:09.834Z,72.39
2016-07-18T05:54:09.819Z,71.91
2016-07-18T05:55:09.800Z,71.34
2016-07-18T05:56:09.786Z,71.43
2016-07-18T05:57:09.769Z,71.56
2016-07-18T05:58:09.755Z,71.47
2016-07-18T05:59:09.737Z,71.28
2016-07-18T06:00:09.727Z,71.18
2016-07-18T06:01:09.705Z,70.6
2016-07-18T06:02:09.689Z,70.6
2016-07-18T06:03:09.674Z,70.5
2016-07-18T06:04:09.750Z,70.5
2016-07-18T06:05:09.643Z,70.5
2016-07-18T06:06:09.626Z,70.25
2016-07-18T06:07:09.613Z,69.67
2016-07-18T06:08:09.595Z,69.48
2016-07-18T06:09:09.581Z,69.38
2016-07-18T06:10:09.564Z,69.19
2016-07-18T06:11:09.552Z,69.38
2016-07-18T06:12:09.536Z,69.09
2016-07-18T06:13:09.518Z,68.42
2016-07-18T06:14:09.505Z,68.55
2016-07-18T06:15:09.489Z,67.88
2016-07-18T06:16:09.475Z,67.88
2016-07-18T06:17:09.459Z,67.4
2016-07-18T06:18:09.454Z,67.68
2016-07-18T06:19:09.429Z,67
2016-07-18T06:20:09.414Z,66.91
2016-07-18T06:21:09.401Z,67
2016-07-18T06:22:09.388Z,66.72
2016-07-18T06:23:09.494Z,66.75
2016-07-18T06:24:09.355Z,66.17
2016-07-18T06:25:09.342Z,65.98
2016-07-18T06:26:09.327Z,65.59
2016-07-18T06:27:09.466Z,65.34
2016-07-18T06:28:09.299Z,65.11
2016-07-18T06:29:09.404Z,65.43
2016-07-18T06:30:09.270Z,64.76
2016-07-18T06:31:09.436Z,64.56
2016-07-18T06:32:09.244Z,64.37
2016-07-18T06:33:09.283Z,64.76
2016-07-18T06:34:09.214Z,63.79
2016-07-18T06:35:09.203Z,64.18
2016-07-18T06:36:09.239Z,64.18
2016-07-18T06:37:09.201Z,63.6
2016-07-18T06:38:09.228Z,63.7
2016-07-18T06:39:09.170Z,63.7
2016-07-18T06:40:09.911Z,63.31
2016-07-18T06:41:09.859Z,63.6
2016-07-18T06:42:09.107Z,63.5
2016-07-18T06:43:09.136Z,63.7
2016-07-18T06:44:09.123Z,63.12
2016-07-18T06:45:09.087Z,63.12
2016-07-18T06:46:09.473Z,63.12
2016-07-18T06:47:09.104Z,62.76
2016-07-18T06:48:09.250Z,62.76
2016-07-18T06:49:09.009Z,62.37
2016-07-18T06:50:08.996Z,62.28
2016-07-18T06:51:08.982Z,62.28
2016-07-18T06:52:08.966Z,62.28
2016-07-18T06:53:08.956Z,62.28
2016-07-18T06:54:08.982Z,62.18
2016-07-18T06:55:09.617Z,61.8
2016-07-18T06:56:08.914Z,61.6
2016-07-18T06:57:09.117Z,61.54
2016-07-18T06:58:09.122Z,61.34
2016-07-18T06:59:09.281Z,61.44
2016-07-18T07:00:09.267Z,61.05
2016-07-18T07:01:09.439Z,61.15
2016-07-18T07:02:08.846Z,61.05
2016-07-18T07:03:08.922Z,60.76
2016-07-18T07:04:08.910Z,61.25
2016-07-18T07:05:08.796Z,60.86
2016-07-18T07:06:08.879Z,60.76
2016-07-18T07:07:08.786Z,60.86
2016-07-18T07:08:08.896Z,60.89
2016-07-18T07:09:08.775Z,60.21
2016-07-18T07:10:08.754Z,60.11
2016-07-18T07:11:08.979Z,59.53
2016-07-18T07:12:08.714Z,59.63
2016-07-18T07:13:08.698Z,59.47
2016-07-18T07:14:08.689Z,58.89
2016-07-18T07:15:08.689Z,58.6
2016-07-18T07:16:08.669Z,58.5
2016-07-18T07:17:08.653Z,58.04
2016-07-18T07:18:08.642Z,58.14
2016-07-18T07:19:08.739Z,56.88
2016-07-18T07:20:08.621Z,56.62
2016-07-18T07:21:08.621Z,56.43
2016-07-18T07:22:08.789Z,56.34
2016-07-18T07:23:08.623Z,55.76
2016-07-18T07:24:08.638Z,55.76
2016-07-18T07:25:08.569Z,55.17
2016-07-18T07:26:08.837Z,55.17
2016-07-18T07:27:08.935Z,54.98
2016-07-18T07:28:08.539Z,55.36
2016-07-18T07:29:09.252Z,54.49
2016-07-18T07:30:08.518Z,54.98
2016-07-18T07:31:08.509Z,54.81
2016-07-18T07:32:08.860Z,54.59
2016-07-18T07:33:08.652Z,54.59
2016-07-18T07:34:08.664Z,53.55
2016-07-18T07:35:08.782Z,53.45
2016-07-18T07:36:09.502Z,53.75
2016-07-18T07:37:08.966Z,52.97
2016-07-18T07:38:08.874Z,52.68
2016-07-18T07:39:09.266Z,52.9
2016-07-18T07:40:08.629Z,52.03
2016-07-18T07:41:08.596Z,52.03
2016-07-18T07:42:08.773Z,51.54
2016-07-18T07:43:08.996Z,51.35
2016-07-18T07:44:08.887Z,51.16
2016-07-18T07:45:08.717Z,51.16
2016-07-18T07:46:09.012Z,51.25
2016-07-18T07:47:09.267Z,51.16
2016-07-18T07:48:09.096Z,51.28
2016-07-18T07:49:08.635Z,50.79
2016-07-18T07:50:08.573Z,50.72
2016-07-18T07:51:08.545Z,50.43
2016-07-18T07:52:09.267Z,49.75
2016-07-18T07:53:09.007Z,49.87
2016-07-18T07:54:08.919Z,49.68
2016-07-18T07:55:08.456Z,49.87
2016-07-18T07:56:08.453Z,49.39
2016-07-18T07:57:08.436Z,49
2016-07-18T07:58:08.926Z,48.9
2016-07-18T07:59:08.639Z,49
2016-07-18T08:00:08.779Z,49.32
2016-07-18T08:01:08.840Z,48.93
2016-07-18T08:02:09.352Z,48.73
2016-07-18T08:03:09.154Z,48.35
2016-07-18T08:04:08.693Z,48.64
2016-07-18T08:05:08.592Z,48.54
2016-07-18T08:06:08.447Z,48.64
2016-07-18T08:07:08.207Z,47.86
2016-07-18T08:08:08.203Z,47.98
2016-07-18T08:09:08.198Z,48.08
2016-07-18T08:10:08.189Z,47.88
2016-07-18T08:11:08.422Z,47.69
2016-07-18T08:12:08.273Z,47.23
2016-07-18T08:13:08.168Z,46.84
2016-07-18T08:14:08.170Z,46.64
2016-07-18T08:15:08.276Z,46.94
2016-07-18T08:16:09.456Z,47.03
2016-07-18T08:17:08.751Z,46.84
2016-07-18T08:18:08.832Z,46.84
2016-07-18T08:19:08.514Z,46.74
2016-07-18T08:20:08.677Z,47.03
2016-07-18T08:21:08.562Z,47.32
2016-07-18T08:22:08.662Z,47.4
2016-07-18T08:23:08.530Z,47.42
2016-07-18T08:24:08.111Z,47.49
2016-07-18T08:25:08.692Z,47.23
2016-07-18T08:26:08.556Z,46.81
2016-07-18T08:27:08.138Z,47.03
2016-07-18T08:28:08.061Z,46.64
2016-07-18T08:29:08.494Z,46.64
2016-07-18T08:30:08.095Z,46.64
2016-07-18T08:31:08.131Z,46.94
2016-07-18T08:32:08.029Z,47.11
2016-07-18T08:33:08.021Z,47.3
2016-07-18T08:34:08.827Z,47.88
2016-07-18T08:35:08.022Z,48.15
2016-07-18T08:36:08.358Z,48.54
2016-07-18T08:37:08.681Z,48.64
2016-07-18T08:38:07.980Z,48.35
2016-07-18T08:39:08.007Z,48.35
2016-07-18T08:40:07.962Z,48.05
2016-07-18T08:41:07.956Z,47.88
2016-07-18T08:42:07.947Z,48.08
2016-07-18T08:43:08.795Z,47.98
2016-07-18T08:44:07.932Z,47.88
2016-07-18T08:45:08.503Z,48.47
2016-07-18T08:46:07.916Z,48.35
2016-07-18T08:47:07.907Z,48.64
2016-07-18T08:48:07.900Z,48.54
2016-07-18T08:49:07.889Z,49.41
2016-07-18T08:50:07.925Z,49.12
2016-07-18T08:51:07.945Z,48.44
2016-07-18T08:52:07.864Z,48.35
2016-07-18T08:53:07.856Z,48.15
2016-07-18T08:54:08.657Z,47.88
2016-07-18T08:55:07.895Z,48.08
2016-07-18T08:56:07.830Z,47.98
2016-07-18T08:57:07.822Z,47.61
2016-07-18T08:58:07.843Z,47.4
2016-07-18T08:59:07.883Z,48.08
2016-07-18T09:00:08.073Z,47.98
2016-07-18T09:01:08.854Z,48.15
2016-07-18T09:02:08.415Z,48.54
2016-07-18T09:03:08.893Z,48.44
2016-07-18T09:04:08.598Z,47.66
2016-07-18T09:05:08.836Z,47.59
2016-07-18T09:06:08.754Z,47.4
2016-07-18T09:07:08.954Z,47.13
2016-07-18T09:08:08.783Z,46.55
2016-07-18T09:09:07.831Z,46.74
2016-07-18T09:10:08.688Z,46.74
2016-07-18T09:11:07.972Z,46.55
2016-07-18T09:12:07.811Z,46.55
2016-07-18T09:13:08.568Z,47.23
2016-07-18T09:14:08.771Z,47.81
2016-07-18T09:15:08.462Z,47.49
2016-07-18T09:16:07.704Z,48.18
2016-07-18T09:17:08.148Z,47.49
2016-07-18T09:18:07.733Z,47.69
2016-07-18T09:19:07.682Z,47.2
2016-07-18T09:20:07.681Z,46.84
2016-07-18T09:21:08.218Z,46.15
2016-07-18T09:22:07.680Z,45.79
2016-07-18T09:23:08.547Z,45.89
2016-07-18T09:24:08.296Z,45.62
2016-07-18T09:25:08.142Z,45.62
2016-07-18T09:26:07.647Z,45.42
2016-07-18T09:27:08.076Z,45.23
2016-07-18T09:28:07.642Z,44.94
2016-07-18T09:29:07.639Z,44.86
2016-07-18T09:30:08.617Z,44.57
2016-07-18T09:31:08.228Z,44.38
2016-07-18T09:32:08.524Z,44.18
2016-07-18T09:33:08.497Z,43.89
2016-07-18T09:34:07.825Z,43.52
2016-07-18T09:35:07.826Z,43.33
2016-07-18T09:36:08.408Z,42.55
2016-07-18T09:37:07.695Z,42.28
2016-07-18T09:38:07.705Z,42.1
2016-07-18T09:39:07.711Z,42.1
2016-07-18T09:40:08.593Z,41.89
2016-07-18T09:41:08.297Z,41.42
2016-07-18T09:42:08.446Z,41.61
2016-07-18T09:43:08.473Z,41.61
2016-07-18T09:44:07.567Z,41.52
2016-07-18T09:45:07.613Z,41.42
2016-07-18T09:46:07.612Z,40.93
2016-07-18T09:47:07.578Z,40.93
2016-07-18T09:48:07.655Z,41.22
2016-07-18T09:49:07.765Z,40.83
2016-07-18T09:50:08.402Z,40.86
2016-07-18T09:51:07.539Z,40.37
2016-07-18T09:52:07.760Z,40.37
2016-07-18T09:53:07.765Z,40.93
2016-07-18T09:54:08.256Z,41.42
2016-07-18T09:55:08.811Z,41.32
2016-07-18T09:56:08.442Z,41.03
2016-07-18T09:57:08.277Z,40.86
2016-07-18T09:58:07.536Z,40.47
2016-07-18T09:59:07.754Z,39.98
2016-07-18T10:00:07.705Z,40.27
2016-07-18T10:01:08.193Z,41.03
2016-07-18T10:02:07.596Z,40.83
2016-07-18T10:03:08.220Z,41.13
2016-07-18T10:04:07.526Z,40.64
2016-07-18T10:05:07.732Z,40.73
2016-07-18T10:06:07.734Z,41.42
2016-07-18T10:07:07.478Z,41.13
2016-07-18T10:08:07.624Z,41.42
2016-07-18T10:09:07.470Z,41.42
2016-07-18T10:10:07.465Z,42
2016-07-18T10:11:07.460Z,41.79
2016-07-18T10:12:08.023Z,41.5
2016-07-18T10:13:08.305Z,41.13
2016-07-18T10:14:08.075Z,41.42
2016-07-18T10:15:08.191Z,40.93
2016-07-18T10:16:08.037Z,40.27
2016-07-18T10:17:07.432Z,39.98
2016-07-18T10:18:07.426Z,40.08
2016-07-18T10:19:07.423Z,39.61
2016-07-18T10:20:07.430Z,39.39
2016-07-18T10:21:08.925Z,39.39
2016-07-18T10:22:07.564Z,39.02
2016-07-18T10:23:07.409Z,38.82
2016-07-18T10:24:07.474Z,38.53
2016-07-18T10:25:07.404Z,38.34
2016-07-18T10:26:07.412Z,38.06
2016-07-18T10:27:07.398Z,38.14
2016-07-18T10:28:07.685Z,38.14
2016-07-18T10:29:07.393Z,37.95
2016-07-18T10:30:07.585Z,37.57
2016-07-18T10:31:08.599Z,37.29
2016-07-18T10:32:07.388Z,37.29
2016-07-18T10:33:07.682Z,37.09
2016-07-18T10:34:07.601Z,36.72
2016-07-18T10:35:07.746Z,36.33
2016-07-18T10:36:07.374Z,36.63
2016-07-18T10:37:07.372Z,37.11
2016-07-18T10:38:07.367Z,37.48
2016-07-18T10:39:07.362Z,38.14
2016-07-18T10:40:07.450Z,38.24
2016-07-18T10:41:07.363Z,38.34
2016-07-18T10:42:07.374Z,37.95
2016-07-18T10:43:07.345Z,37.85
2016-07-18T10:44:07.403Z,37.27
2016-07-18T10:45:07.334Z,37.46
2016-07-18T10:46:07.329Z,37.95
2016-07-18T10:47:07.345Z,38.34
2016-07-18T10:48:07.872Z,38.61
2016-07-18T10:49:07.317Z,38.42
2016-07-18T10:50:07.310Z,37.73
2016-07-18T10:51:07.317Z,37.38
2016-07-18T10:52:07.301Z,37.55
2016-07-18T10:53:07.295Z,38.04
2016-07-18T10:54:07.308Z,38.04
2016-07-18T10:55:07.293Z,38.81
2016-07-18T10:56:07.282Z,38.73
2016-07-18T10:57:07.278Z,39.2
2016-07-18T10:58:07.278Z,39.37
2016-07-18T10:59:07.716Z,38.89
2016-07-18T11:00:07.496Z,38.81
2016-07-18T11:01:07.420Z,38.49
2016-07-18T11:02:07.270Z,38.51
2016-07-18T11:03:07.247Z,38.02
2016-07-18T11:04:07.239Z,37.55
2016-07-18T11:05:07.295Z,36.8
2016-07-18T11:06:07.242Z,36.72
2016-07-18T11:07:07.243Z,36.04
2016-07-18T11:08:07.222Z,35.66
2016-07-18T11:09:07.221Z,35.17
2016-07-18T11:10:07.249Z,35.17
2016-07-18T11:11:07.223Z,34.7
2016-07-18T11:12:07.217Z,34.21
2016-07-18T11:13:07.211Z,33.62
2016-07-18T11:14:07.902Z,33.25
2016-07-18T11:15:07.969Z,32.78
2016-07-18T11:16:07.429Z,32.48
2016-07-18T11:17:08.522Z,32.68
2016-07-18T11:18:07.224Z,32.76
2016-07-18T11:19:07.199Z,32.56
2016-07-18T11:20:07.891Z,32.76
2016-07-18T11:21:07.203Z,32.76
2016-07-18T11:22:07.195Z,32.76
2016-07-18T11:23:07.533Z,32.75
2016-07-18T11:24:07.190Z,32.75
2016-07-18T11:25:07.212Z,32.46
2016-07-18T11:26:07.741Z,32.17
2016-07-18T11:27:07.184Z,31.9
2016-07-18T11:28:07.312Z,31.6
2016-07-18T11:29:07.905Z,31.81
2016-07-18T11:30:07.683Z,31.83
2016-07-18T11:31:07.187Z,31.91
2016-07-18T11:32:07.180Z,31.14
2016-07-18T11:33:07.181Z,30.96
2016-07-18T11:34:07.181Z,30.87
2016-07-18T11:35:07.181Z,29.98
2016-07-18T11:36:07.183Z,29.8
2016-07-18T11:37:07.180Z,29.91
2016-07-18T11:38:07.178Z,29.72
2016-07-18T11:39:07.196Z,29.8
2016-07-18T11:40:07.178Z,29.97
2016-07-18T11:41:07.178Z,30.25
2016-07-18T11:42:07.174Z,30.72
2016-07-18T11:43:07.175Z,30.9
2016-07-18T11:44:08.130Z,31.39
2016-07-18T11:45:07.168Z,31.57
2016-07-18T11:46:07.164Z,31.96
2016-07-18T11:47:07.264Z,32.16
2016-07-18T11:48:07.160Z,32.73
2016-07-18T11:49:07.157Z,33.61
2016-07-18T11:50:07.146Z,34.28
2016-07-18T11:51:07.138Z,35.43
2016-07-18T11:52:07.134Z,35.9
2016-07-18T11:53:07.263Z,36.76
2016-07-18T11:54:07.120Z,37.43
2016-07-18T11:55:07.203Z,37.71
2016-07-18T11:56:07.280Z,37.62
2016-07-18T11:57:08.100Z,37.62
2016-07-18T11:58:07.093Z,37.23
2016-07-18T11:59:07.194Z,36.94
2016-07-18T12:00:07.095Z,36.66
2016-07-18T12:01:07.073Z,35.51
2016-07-18T12:02:07.069Z,35.41
2016-07-18T12:03:07.068Z,34.84
2016-07-18T12:04:07.058Z,34.38
2016-07-18T12:05:07.051Z,33.59
2016-07-18T12:06:07.067Z,33.22
2016-07-18T12:07:07.044Z,32.55
2016-07-18T12:08:07.042Z,32.17
2016-07-18T12:09:07.039Z,31.98
2016-07-18T12:10:07.122Z,31.68
2016-07-18T12:11:07.105Z,32.26
2016-07-18T12:12:07.038Z,32.35
2016-07-18T12:13:07.055Z,32.63
2016-07-18T12:14:07.025Z,32.92
2016-07-18T12:15:07.022Z,33.31
2016-07-18T12:16:07.622Z,33.3
2016-07-18T12:17:07.878Z,33.02
2016-07-18T12:18:07.145Z,32.43
2016-07-18T12:19:07.008Z,31.75
2016-07-18T12:20:07.007Z,31.38
2016-07-18T12:21:07.005Z,30.2
2016-07-18T12:22:07.003Z,30.22
2016-07-18T12:23:06.999Z,29.83
2016-07-18T12:24:06.999Z,29.34
2016-07-18T12:25:06.997Z,28.94
2016-07-18T12:26:06.994Z,28.86
2016-07-18T12:27:06.994Z,28.77
2016-07-18T12:28:07.142Z,28.29
2016-07-18T12:29:07.288Z,28.49
2016-07-18T12:30:06.990Z,28.49
2016-07-18T12:31:07.117Z,28.29
2016-07-18T12:32:06.988Z,28.29
2016-07-18T12:33:07.212Z,28.01
2016-07-18T12:34:07.937Z,27.72
2016-07-18T12:35:07.266Z,27.44
2016-07-18T12:36:07.070Z,27.14
2016-07-18T12:37:07.034Z,27.34
2016-07-18T12:38:07.971Z,26.84
2016-07-18T12:39:06.989Z,26.45
2016-07-18T12:40:07.514Z,26.65
2016-07-18T12:41:07.323Z,26.26
2016-07-18T12:42:06.992Z,25.88
2016-07-18T12:43:06.988Z,25.59
2016-07-18T12:44:06.997Z,25.88
2016-07-18T12:45:06.996Z,26.17
2016-07-18T12:46:06.993Z,26.45
2016-07-18T12:47:07.126Z,26.16
2016-07-18T12:48:06.999Z,26.26
2016-07-18T12:49:06.991Z,26.55
2016-07-18T12:50:06.994Z,26.75
2016-07-18T12:51:06.991Z,26.84
2016-07-18T12:52:06.989Z,26.93
2016-07-18T12:53:06.986Z,26.84
2016-07-18T12:54:07.053Z,27.33
2016-07-18T12:55:06.983Z,27.62